Time;durP1;ratioP1;P1;durP2;ratioP2;P2;SDS_P1;SDS_P2;PMS_P1;PMS_P2;Temp;Humidity;BMP_temperature;BMP_pressure;BME280_temperature;BME280_humidity;BME280_pressure;Samples;Min_cycle;Max_cycle;Signal;HPM_P1;HPM_P2
2023/01/31 00:00:45;;;;;;;6.13;4.00;;;5.70;99.90;;;;;;5096983;28;20211;-57
2023/01/31 00:03:12;;;;;;;8.30;4.10;;;5.60;99.90;;;;;;5096742;28;20205;-59
2023/01/31 00:05:39;;;;;;;9.00;3.93;;;5.50;99.90;;;;;;5097115;28;20581;-57
2023/01/31 00:08:06;;;;;;;7.57;3.90;;;5.50;99.90;;;;;;5097270;28;20692;-57
2023/01/31 00:10:32;;;;;;;6.47;3.93;;;5.50;99.90;;;;;;5097614;28;20619;-56
2023/01/31 00:13:00;;;;;;;9.00;4.20;;;5.40;99.90;;;;;;5096936;28;20204;-57
2023/01/31 00:15:27;;;;;;;6.17;3.70;;;5.40;99.90;;;;;;5097174;28;20566;-57
2023/01/31 00:17:55;;;;;;;10.13;3.70;;;5.30;99.90;;;;;;5096904;28;20216;-57
2023/01/31 00:20:21;;;;;;;6.23;3.20;;;5.30;99.90;;;;;;5097069;28;20212;-57
2023/01/31 00:22:48;;;;;;;7.70;3.70;;;5.30;99.90;;;;;;5097029;28;20212;-56
2023/01/31 00:25:15;;;;;;;8.10;3.67;;;5.40;99.90;;;;;;5097264;28;20235;-57
2023/01/31 00:27:42;;;;;;;4.73;3.40;;;5.30;99.90;;;;;;5096687;28;20308;-57
2023/01/31 00:30:11;;;;;;;10.00;3.90;;;5.40;99.90;;;;;;5096682;28;20589;-58
2023/01/31 00:32:38;;;;;;;9.83;3.47;;;5.50;99.90;;;;;;5096523;28;20257;-57
2023/01/31 00:35:05;;;;;;;11.47;4.03;;;5.60;99.90;;;;;;5096824;28;20283;-57
2023/01/31 00:37:32;;;;;;;9.40;3.63;;;5.60;99.90;;;;;;5096488;28;20220;-58
2023/01/31 00:39:59;;;;;;;7.73;3.37;;;5.60;99.90;;;;;;5096981;28;20211;-57
2023/01/31 00:42:25;;;;;;;9.70;3.03;;;5.70;99.90;;;;;;5096422;28;20585;-58
2023/01/31 00:44:52;;;;;;;5.90;3.20;;;5.70;99.90;;;;;;5096570;28;20235;-58
2023/01/31 00:47:20;;;;;;;11.03;3.70;;;5.80;99.90;;;;;;5096442;28;20708;-57
2023/01/31 00:49:47;;;;;;;8.93;3.80;;;5.80;99.90;;;;;;5096925;28;20212;-57
2023/01/31 00:52:13;;;;;;;9.60;3.70;;;5.80;99.90;;;;;;5096082;28;20223;-58
2023/01/31 00:54:41;;;;;;;5.40;3.23;;;5.80;99.90;;;;;;5095916;28;20215;-57
2023/01/31 00:57:08;;;;;;;5.87;3.40;;;5.80;99.90;;;;;;5095875;28;20204;-57
2023/01/31 00:59:35;;;;;;;5.93;3.17;;;5.80;99.90;;;;;;5095868;28;20232;-58
2023/01/31 01:02:01;;;;;;;8.37;3.60;;;5.80;99.90;;;;;;5095242;28;20230;-59
2023/01/31 01:04:29;;;;;;;5.90;3.10;;;5.90;99.90;;;;;;5095647;28;20220;-58
2023/01/31 01:06:56;;;;;;;8.87;3.27;;;5.90;99.90;;;;;;5094771;28;20200;-58
2023/01/31 01:09:24;;;;;;;7.13;3.30;;;5.70;99.90;;;;;;5095534;28;20208;-58
2023/01/31 01:11:51;;;;;;;8.87;3.30;;;5.60;99.90;;;;;;5095205;28;20668;-59
2023/01/31 01:14:18;;;;;;;7.27;3.40;;;5.60;99.90;;;;;;5095810;28;20648;-57
2023/01/31 01:16:45;;;;;;;9.10;3.50;;;5.50;99.90;;;;;;5095637;28;20243;-56
2023/01/31 01:19:15;;;;;;;8.70;3.57;;;5.60;99.90;;;;;;5095422;28;20720;-59
2023/01/31 01:21:43;;;;;;;8.13;3.33;;;5.70;99.90;;;;;;5095612;28;20490;-56
2023/01/31 01:24:15;;;;;;;8.63;3.27;;;5.70;99.90;;;;;;5094996;28;20252;-56
2023/01/31 01:26:43;;;;;;;7.47;3.17;;;5.90;99.90;;;;;;5094845;28;20588;-58
2023/01/31 01:29:11;;;;;;;7.50;3.40;;;6.00;99.90;;;;;;5094483;28;20615;-59
2023/01/31 01:31:38;;;;;;;5.30;3.00;;;6.00;99.90;;;;;;5094677;28;20203;-57
2023/01/31 01:34:07;;;;;;;6.23;3.00;;;6.20;99.90;;;;;;5094760;28;20213;-57
2023/01/31 01:36:36;;;;;;;5.97;3.03;;;6.20;99.90;;;;;;5094613;28;20201;-57
2023/01/31 01:39:06;;;;;;;7.33;3.50;;;6.20;99.90;;;;;;5094550;28;20738;-58
2023/01/31 01:41:33;;;;;;;7.00;3.37;;;6.10;99.90;;;;;;5095169;28;20204;-59
2023/01/31 01:44:02;;;;;;;7.50;3.20;;;6.10;99.90;;;;;;5095495;28;20326;-57
2023/01/31 01:46:32;;;;;;;6.17;3.23;;;6.10;99.90;;;;;;5095706;28;20211;-58
2023/01/31 01:49:04;;;;;;;6.50;3.00;;;6.10;99.90;;;;;;5095438;28;20606;-59
2023/01/31 01:51:33;;;;;;;6.37;3.20;;;6.20;99.90;;;;;;5094854;28;20208;-57
2023/01/31 01:54:06;;;;;;;5.40;3.63;;;6.30;99.90;;;;;;5095472;28;20288;-57
2023/01/31 01:56:38;;;;;;;5.20;3.20;;;6.20;99.90;;;;;;5094953;28;20204;-61
2023/01/31 01:59:09;;;;;;;8.43;3.50;;;6.30;99.90;;;;;;5095685;28;20216;-59
2023/01/31 02:01:38;;;;;;;5.60;3.00;;;6.30;99.90;;;;;;5095049;28;20215;-58
2023/01/31 02:04:09;;;;;;;7.70;3.37;;;6.30;99.90;;;;;;5094154;28;20224;-59
2023/01/31 02:06:36;;;;;;;6.13;3.17;;;6.30;99.90;;;;;;5094351;28;20298;-59
2023/01/31 02:09:07;;;;;;;7.23;2.90;;;6.30;99.90;;;;;;5094646;28;20232;-56
2023/01/31 02:11:34;;;;;;;11.53;3.37;;;6.30;99.90;;;;;;5095243;28;20656;-59
2023/01/31 02:14:04;;;;;;;6.47;3.00;;;6.30;99.90;;;;;;5096568;28;20581;-59
2023/01/31 02:16:31;;;;;;;10.17;3.17;;;6.30;99.90;;;;;;5096003;28;20684;-56
2023/01/31 02:18:58;;;;;;;6.77;3.30;;;6.30;99.90;;;;;;5095308;28;20319;-57
2023/01/31 02:21:59;;;;;;;4.30;2.83;;;6.30;99.90;;;;;;5095428;28;20703;-59
2023/01/31 02:25:03;;;;;;;5.23;2.50;;;6.30;99.90;;;;;;5095506;28;20532;-57
2023/01/31 02:27:48;;;;;;;8.77;3.07;;;6.30;99.90;;;;;;5095251;28;20268;-59
2023/01/31 02:30:48;;;;;;;6.13;2.90;;;6.30;99.90;;;;;;5095966;28;20251;-59
2023/01/31 02:33:23;;;;;;;9.10;3.60;;;6.20;99.90;;;;;;5094907;28;20204;-59
2023/01/31 02:36:01;;;;;;;7.97;3.43;;;6.30;99.90;;;;;;5094557;28;20207;-58
2023/01/31 02:38:40;;;;;;;7.43;3.23;;;6.30;99.90;;;;;;5094378;28;20231;-60
2023/01/31 02:41:16;;;;;;;4.83;3.00;;;6.30;99.90;;;;;;5094138;28;20207;-59
2023/01/31 02:46:43;;;;;;;9.33;3.30;;;6.40;99.90;;;;;;5094283;28;20199;-59
2023/01/31 02:49:33;;;;;;;7.47;3.60;;;6.40;99.90;;;;;;5093879;28;20234;-60
2023/01/31 02:52:18;;;;;;;6.93;3.43;;;6.40;99.90;;;;;;5094112;28;20208;-59
2023/01/31 02:57:40;;;;;;;8.47;3.13;;;6.30;99.90;;;;;;5093955;28;20333;-59
2023/01/31 03:00:10;;;;;;;10.90;3.33;;;6.30;99.90;;;;;;5094099;28;20199;-59
2023/01/31 03:02:36;;;;;;;8.87;4.20;;;6.30;99.90;;;;;;5092923;28;20208;-59
2023/01/31 03:05:05;;;;;;;9.03;3.50;;;6.20;99.90;;;;;;5093483;28;20646;-60
2023/01/31 03:07:36;;;;;;;8.47;3.43;;;6.30;99.90;;;;;;5094064;28;20600;-60
2023/01/31 03:10:15;;;;;;;8.60;3.97;;;6.30;99.90;;;;;;5093888;28;20212;-59
2023/01/31 03:12:54;;;;;;;5.60;3.10;;;6.30;99.90;;;;;;5093449;28;20204;-59
2023/01/31 03:18:40;;;;;;;10.77;4.10;;;6.20;99.90;;;;;;5093336;28;20227;-59
2023/01/31 03:21:13;;;;;;;7.97;4.07;;;6.20;99.90;;;;;;5093028;28;20210;-58
2023/01/31 03:23:43;;;;;;;7.93;4.20;;;6.10;99.90;;;;;;5093391;28;20216;-60
2023/01/31 03:26:11;;;;;;;8.20;4.20;;;6.10;99.90;;;;;;5093372;28;20601;-59
2023/01/31 03:28:41;;;;;;;6.03;3.70;;;6.00;99.90;;;;;;5092914;28;20232;-59
2023/01/31 03:31:12;;;;;;;9.73;4.10;;;6.00;99.90;;;;;;5092957;28;20249;-59
2023/01/31 03:33:43;;;;;;;8.60;4.10;;;6.00;99.90;;;;;;5093373;28;20291;-59
2023/01/31 03:36:18;;;;;;;10.10;4.00;;;6.00;99.90;;;;;;5093079;28;20204;-60
2023/01/31 03:38:55;;;;;;;9.57;3.83;;;6.00;99.90;;;;;;5093488;28;20299;-59
2023/01/31 03:41:27;;;;;;;10.73;4.50;;;6.10;99.90;;;;;;5093016;28;20675;-60
2023/01/31 03:44:01;;;;;;;10.00;4.50;;;6.10;99.90;;;;;;5093436;28;20243;-60
2023/01/31 03:46:32;;;;;;;8.33;3.80;;;6.10;99.90;;;;;;5092946;28;20227;-60
2023/01/31 03:49:03;;;;;;;11.73;4.40;;;6.00;99.90;;;;;;5093160;28;20707;-60
2023/01/31 03:51:36;;;;;;;10.07;4.20;;;6.00;99.90;;;;;;5092739;28;20196;-59
2023/01/31 03:54:07;;;;;;;8.63;4.43;;;6.10;99.90;;;;;;5093012;28;20208;-58
2023/01/31 03:56:40;;;;;;;7.20;4.10;;;6.10;99.90;;;;;;5092900;28;20200;-59
2023/01/31 03:59:12;;;;;;;13.23;4.57;;;6.00;99.90;;;;;;5092841;28;20232;-59
2023/01/31 04:01:49;;;;;;;7.33;4.00;;;6.00;99.90;;;;;;5092806;28;20204;-59
2023/01/31 04:04:20;;;;;;;10.37;4.70;;;6.00;99.90;;;;;;5092853;28;20457;-59
2023/01/31 04:06:49;;;;;;;16.10;4.20;;;6.00;99.90;;;;;;5092950;28;20231;-59
2023/01/31 04:09:16;;;;;;;15.37;7.00;;;6.10;99.90;;;;;;5092542;28;20228;-59
2023/01/31 04:11:48;;;;;;;8.03;4.30;;;6.00;99.90;;;;;;5092443;28;20207;-59
2023/01/31 04:14:15;;;;;;;9.90;4.63;;;6.00;99.90;;;;;;5092518;28;20200;-58
2023/01/31 04:16:42;;;;;;;14.10;5.00;;;6.00;99.90;;;;;;5092833;28;20257;-59
2023/01/31 04:19:09;;;;;;;12.27;4.53;;;6.10;99.90;;;;;;5092605;28;20228;-59
2023/01/31 04:21:35;;;;;;;13.73;4.23;;;6.20;99.90;;;;;;5092269;28;20204;-59
2023/01/31 04:24:04;;;;;;;11.43;4.77;;;6.20;99.90;;;;;;5092741;28;20205;-59
2023/01/31 04:26:30;;;;;;;10.27;4.50;;;6.10;99.90;;;;;;5092625;28;20224;-59
2023/01/31 04:28:57;;;;;;;8.80;4.33;;;6.00;99.90;;;;;;5092734;28;20739;-59
2023/01/31 04:31:24;;;;;;;9.43;3.93;;;6.00;99.90;;;;;;5092732;28;20208;-59
2023/01/31 04:33:51;;;;;;;10.73;4.60;;;5.90;99.90;;;;;;5092620;28;20665;-58
2023/01/31 04:36:17;;;;;;;20.87;10.70;;;5.90;99.90;;;;;;5092685;28;20211;-59
2023/01/31 04:38:44;;;;;;;9.43;4.20;;;6.00;99.90;;;;;;5092763;28;20232;-60
2023/01/31 04:41:12;;;;;;;53.97;28.80;;;6.00;99.90;;;;;;5093284;28;20239;-59
2023/01/31 04:43:39;;;;;;;10.43;4.00;;;6.00;99.90;;;;;;5096658;28;20208;-59
2023/01/31 04:46:06;;;;;;;7.73;4.17;;;6.00;99.90;;;;;;5096561;28;20228;-60
2023/01/31 04:48:33;;;;;;;16.13;6.40;;;5.80;99.90;;;;;;5096584;28;20644;-59
2023/01/31 04:51:00;;;;;;;19.97;9.50;;;5.80;99.90;;;;;;5096353;28;20211;-60
2023/01/31 04:53:26;;;;;;;12.77;6.00;;;5.80;99.90;;;;;;5096420;28;20294;-59
2023/01/31 04:55:54;;;;;;;7.60;4.17;;;5.80;99.90;;;;;;5096083;28;20196;-60
2023/01/31 04:58:22;;;;;;;9.77;4.17;;;5.80;99.90;;;;;;5096827;28;20228;-59
2023/01/31 05:00:49;;;;;;;10.40;4.67;;;5.70;99.90;;;;;;5095908;28;20232;-60
2023/01/31 05:03:16;;;;;;;9.50;4.07;;;5.60;99.90;;;;;;5095805;28;20598;-59
2023/01/31 05:05:43;;;;;;;9.23;4.30;;;5.50;99.90;;;;;;5095111;28;20250;-59
2023/01/31 05:08:10;;;;;;;11.13;4.40;;;5.40;99.90;;;;;;5095803;28;20591;-60
2023/01/31 05:10:37;;;;;;;6.93;4.23;;;5.30;99.90;;;;;;5095520;28;20278;-60
2023/01/31 05:13:03;;;;;;;14.30;5.40;;;5.30;99.90;;;;;;5095325;28;20203;-61
2023/01/31 05:15:32;;;;;;;9.60;3.93;;;5.20;99.90;;;;;;5095873;28;20220;-60
2023/01/31 05:18:02;;;;;;;14.30;4.30;;;5.10;99.90;;;;;;5095514;28;20231;-60
2023/01/31 05:20:29;;;;;;;10.43;4.67;;;5.00;99.90;;;;;;5095530;28;20204;-60
2023/01/31 05:22:57;;;;;;;12.03;4.40;;;5.00;99.90;;;;;;5095264;28;20215;-60
2023/01/31 05:25:24;;;;;;;8.60;4.20;;;4.90;99.90;;;;;;5095533;28;20311;-60
2023/01/31 05:27:50;;;;;;;13.17;5.00;;;4.80;99.90;;;;;;5095538;28;20232;-59
2023/01/31 05:30:18;;;;;;;9.63;4.20;;;4.80;99.90;;;;;;5095549;28;20208;-60
2023/01/31 05:32:47;;;;;;;14.97;5.07;;;4.60;99.90;;;;;;5095135;28;20583;-60
2023/01/31 05:35:15;;;;;;;9.57;4.70;;;4.60;99.90;;;;;;5096120;28;20653;-59
2023/01/31 05:37:42;;;;;;;13.53;6.13;;;4.50;99.90;;;;;;5094931;28;20293;-60
2023/01/31 05:40:10;;;;;;;12.40;5.50;;;4.50;99.90;;;;;;5095425;28;20243;-60
2023/01/31 05:42:37;;;;;;;17.17;7.73;;;4.50;99.90;;;;;;5094747;28;20578;-59
2023/01/31 05:45:05;;;;;;;9.17;4.50;;;4.50;99.90;;;;;;5094845;28;20214;-59
2023/01/31 05:47:31;;;;;;;14.53;5.67;;;4.50;99.90;;;;;;5094972;28;20247;-59
2023/01/31 05:49:59;;;;;;;14.03;6.80;;;4.60;99.90;;;;;;5094981;28;20200;-60
2023/01/31 05:52:26;;;;;;;14.97;6.67;;;4.70;99.90;;;;;;5094191;28;20212;-59
2023/01/31 05:54:53;;;;;;;14.70;6.63;;;4.80;99.90;;;;;;5094984;28;20208;-59
2023/01/31 05:57:20;;;;;;;12.77;5.80;;;4.90;99.90;;;;;;5094927;28;20220;-59
2023/01/31 05:59:47;;;;;;;12.43;5.40;;;5.00;99.90;;;;;;5094617;28;20231;-58
2023/01/31 06:02:14;;;;;;;11.63;5.57;;;4.90;99.90;;;;;;5095110;28;20240;-59
2023/01/31 06:04:41;;;;;;;12.47;5.00;;;4.90;99.90;;;;;;5094636;28;20213;-59
2023/01/31 06:07:09;;;;;;;9.70;4.27;;;4.80;99.90;;;;;;5094697;28;20277;-59
2023/01/31 06:09:37;;;;;;;10.40;4.70;;;4.80;99.90;;;;;;5094666;28;20212;-59
2023/01/31 06:12:04;;;;;;;6.63;3.77;;;4.80;99.90;;;;;;5094224;28;20208;-59
2023/01/31 06:14:31;;;;;;;10.17;4.57;;;4.80;99.90;;;;;;5093958;28;20216;-59
2023/01/31 06:16:58;;;;;;;12.20;4.53;;;4.70;99.90;;;;;;5094151;28;20208;-62
2023/01/31 06:19:24;;;;;;;9.23;4.20;;;4.80;99.90;;;;;;5094563;28;20204;-59
2023/01/31 06:21:52;;;;;;;10.13;4.20;;;4.80;99.90;;;;;;5094666;28;20208;-59
2023/01/31 06:24:20;;;;;;;78.73;50.70;;;4.90;99.90;;;;;;5094453;28;20219;-59
2023/01/31 06:26:47;;;;;;;8.60;4.10;;;4.90;99.90;;;;;;5094410;28;20675;-59
2023/01/31 06:29:13;;;;;;;9.10;4.20;;;5.00;99.90;;;;;;5094333;28;20704;-58
2023/01/31 06:31:43;;;;;;;11.60;4.83;;;5.00;99.90;;;;;;5094436;28;20211;-59
2023/01/31 06:34:10;;;;;;;9.90;4.10;;;5.00;99.90;;;;;;5094900;28;20310;-58
2023/01/31 06:36:37;;;;;;;8.93;4.13;;;4.90;99.90;;;;;;5096007;28;20672;-59
2023/01/31 06:39:04;;;;;;;10.63;3.70;;;4.80;99.90;;;;;;5095224;28;20220;-58
2023/01/31 06:41:32;;;;;;;9.20;3.63;;;4.70;99.90;;;;;;5095051;28;20211;-59
2023/01/31 06:43:59;;;;;;;15.77;7.10;;;4.80;99.90;;;;;;5094935;28;20215;-59
2023/01/31 06:46:26;;;;;;;7.93;3.67;;;4.70;99.90;;;;;;5094414;28;20223;-59
2023/01/31 06:48:52;;;;;;;11.70;4.17;;;4.70;99.90;;;;;;5094573;28;20224;-59
2023/01/31 06:51:19;;;;;;;11.43;3.73;;;4.70;99.90;;;;;;5094710;28;20204;-59
2023/01/31 06:53:46;;;;;;;8.20;3.77;;;4.70;99.90;;;;;;5094902;28;20204;-59
2023/01/31 06:56:13;;;;;;;11.93;4.00;;;4.60;99.90;;;;;;5094753;28;20196;-59
2023/01/31 06:58:41;;;;;;;9.27;3.80;;;4.60;99.90;;;;;;5094430;28;20235;-59
2023/01/31 07:01:09;;;;;;;10.27;3.77;;;4.40;99.90;;;;;;5095009;28;20212;-59
2023/01/31 07:03:36;;;;;;;8.13;3.73;;;4.30;99.90;;;;;;5094047;28;20269;-58
2023/01/31 07:06:03;;;;;;;9.30;3.93;;;4.30;99.90;;;;;;5094292;28;20230;-59
2023/01/31 07:08:30;;;;;;;12.03;4.10;;;4.20;99.90;;;;;;5094405;28;20231;-59
2023/01/31 07:10:57;;;;;;;11.47;3.90;;;4.20;99.90;;;;;;5094704;28;20208;-59
2023/01/31 07:13:24;;;;;;;7.67;4.17;;;4.20;99.90;;;;;;5094148;28;20211;-59
2023/01/31 07:15:52;;;;;;;9.90;4.23;;;4.10;99.90;;;;;;5093934;28;20212;-58
2023/01/31 07:18:19;;;;;;;10.17;4.47;;;4.00;99.90;;;;;;5094167;28;20232;-59
2023/01/31 07:20:46;;;;;;;10.90;4.47;;;4.00;99.90;;;;;;5094399;28;20664;-59
2023/01/31 07:23:13;;;;;;;8.93;4.10;;;4.00;99.90;;;;;;5093928;28;20211;-59
2023/01/31 07:25:39;;;;;;;8.97;4.13;;;4.00;99.90;;;;;;5093997;28;20593;-59
2023/01/31 07:28:06;;;;;;;5.47;4.07;;;4.00;99.90;;;;;;5094455;28;20231;-59
2023/01/31 07:30:33;;;;;;;13.40;4.97;;;4.00;99.90;;;;;;5093929;28;20297;-58
2023/01/31 07:33:01;;;;;;;12.37;4.10;;;4.10;99.90;;;;;;5093295;28;20208;-59
2023/01/31 07:35:28;;;;;;;7.80;3.83;;;4.30;99.90;;;;;;5094011;28;20211;-59
2023/01/31 07:37:55;;;;;;;10.97;4.13;;;4.40;99.90;;;;;;5093414;28;20227;-57
2023/01/31 07:40:22;;;;;;;13.10;4.77;;;4.50;99.90;;;;;;5093460;28;20204;-59
2023/01/31 07:42:48;;;;;;;9.67;4.30;;;4.50;99.90;;;;;;5093196;28;20231;-60
2023/01/31 07:45:16;;;;;;;12.27;4.83;;;4.70;99.90;;;;;;5093410;28;20212;-58
2023/01/31 07:47:43;;;;;;;14.20;4.40;;;4.80;99.90;;;;;;5092961;28;20619;-59
2023/01/31 07:50:12;;;;;;;13.03;4.00;;;5.00;99.90;;;;;;5093446;28;20318;-58
2023/01/31 07:52:38;;;;;;;11.97;4.47;;;5.10;99.90;;;;;;5093400;28;20204;-59
2023/01/31 07:55:06;;;;;;;10.73;6.40;;;5.20;99.90;;;;;;5093659;28;20255;-59
2023/01/31 07:57:33;;;;;;;14.13;7.00;;;5.40;99.90;;;;;;5093143;28;20220;-59
2023/01/31 08:00:00;;;;;;;14.73;7.70;;;5.50;99.90;;;;;;5093374;28;20695;-59
2023/01/31 08:05:21;;;;;;;10.60;5.97;;;5.90;99.90;;;;;;5068536;28;20192;-60
2023/01/31 08:08:09;;;;;;;13.90;6.43;;;6.10;99.90;;;;;;5093545;28;20231;-59
2023/01/31 08:10:35;;;;;;;7.87;3.57;;;6.20;99.90;;;;;;5093425;28;20208;-60
2023/01/31 08:13:01;;;;;;;5.83;3.47;;;6.30;99.90;;;;;;5093051;28;20253;-60
2023/01/31 08:15:28;;;;;;;12.10;3.80;;;6.40;99.90;;;;;;5094025;28;20200;-59
2023/01/31 08:17:55;;;;;;;9.63;4.20;;;6.40;99.90;;;;;;5097285;28;20307;-60
2023/01/31 08:20:23;;;;;;;7.73;3.73;;;6.60;99.90;;;;;;5097294;28;20212;-59
2023/01/31 08:22:50;;;;;;;9.20;4.00;;;6.90;99.90;;;;;;5097037;28;20211;-59
2023/01/31 08:25:17;;;;;;;8.27;3.70;;;7.20;99.90;;;;;;5097355;28;20218;-59
2023/01/31 08:27:44;;;;;;;8.50;3.90;;;7.50;99.90;;;;;;5097279;28;20313;-60
2023/01/31 08:30:12;;;;;;;8.70;3.93;;;7.80;99.90;;;;;;5096966;28;20212;-60
2023/01/31 08:32:38;;;;;;;9.20;3.80;;;8.00;99.90;;;;;;5096100;28;20585;-59
2023/01/31 08:35:06;;;;;;;7.90;3.43;;;7.90;99.90;;;;;;5096578;28;20584;-57
2023/01/31 08:37:35;;;;;;;8.87;3.70;;;7.90;99.90;;;;;;5096289;28;20224;-58
2023/01/31 08:40:01;;;;;;;6.70;3.73;;;7.90;99.90;;;;;;5096295;28;20204;-58
2023/01/31 08:42:28;;;;;;;11.10;4.03;;;8.10;99.90;;;;;;5096413;28;20231;-58
2023/01/31 08:44:55;;;;;;;7.50;3.67;;;8.10;99.90;;;;;;5096894;28;20261;-58
2023/01/31 08:47:22;;;;;;;10.13;5.47;;;8.20;99.90;;;;;;5096280;28;20239;-57
2023/01/31 08:49:48;;;;;;;7.33;3.43;;;8.10;99.90;;;;;;5095750;28;20617;-57
2023/01/31 08:52:15;;;;;;;9.57;3.93;;;7.70;99.90;;;;;;5096571;28;20215;-58
2023/01/31 08:54:43;;;;;;;8.60;3.80;;;7.50;99.90;;;;;;5096137;28;20204;-59
2023/01/31 08:57:10;;;;;;;8.50;3.77;;;7.30;99.90;;;;;;5095066;28;20200;-54
2023/01/31 08:59:37;;;;;;;8.07;3.67;;;7.30;99.90;;;;;;5111275;28;20652;-56
2023/01/31 09:02:04;;;;;;;8.53;3.63;;;7.30;99.90;;;;;;5114437;28;20199;-56
2023/01/31 09:04:30;;;;;;;9.40;3.73;;;7.50;99.90;;;;;;5115337;28;20299;-56
2023/01/31 09:06:57;;;;;;;11.23;4.27;;;7.60;99.90;;;;;;5114469;28;20234;-56
2023/01/31 09:09:25;;;;;;;11.67;4.03;;;7.70;99.90;;;;;;5114250;28;20207;-57
2023/01/31 09:11:53;;;;;;;11.53;3.90;;;7.70;99.90;;;;;;5115253;28;20207;-62
2023/01/31 09:14:19;;;;;;;9.27;4.10;;;7.60;99.90;;;;;;5115421;28;20199;-56
2023/01/31 09:16:46;;;;;;;7.67;3.83;;;7.60;99.90;;;;;;5115403;28;20574;-56
2023/01/31 09:19:13;;;;;;;8.77;3.83;;;7.40;99.90;;;;;;5115496;28;20224;-54
2023/01/31 09:21:40;;;;;;;10.83;4.23;;;7.30;99.90;;;;;;5114777;28;20207;-56
2023/01/31 09:24:07;;;;;;;9.30;4.10;;;7.40;99.90;;;;;;5115916;28;20215;-56
2023/01/31 09:26:34;;;;;;;9.03;3.97;;;7.50;99.90;;;;;;5115734;28;20401;-55
2023/01/31 09:29:02;;;;;;;10.73;4.17;;;7.50;99.90;;;;;;5115378;28;20280;-55
2023/01/31 09:31:29;;;;;;;10.23;3.87;;;7.80;99.90;;;;;;5115766;28;20679;-56
2023/01/31 09:33:55;;;;;;;8.13;3.50;;;8.30;99.90;;;;;;5116290;28;20210;-55
2023/01/31 09:36:23;;;;;;;11.43;4.63;;;8.70;99.90;;;;;;5115746;27;20196;-55
2023/01/31 09:38:54;;;;;;;6.27;3.63;;;9.10;99.90;;;;;;5115703;28;20762;-57
2023/01/31 09:41:27;;;;;;;7.10;3.80;;;9.30;99.90;;;;;;5115923;28;20200;-55
2023/01/31 09:43:58;;;;;;;13.07;3.50;;;9.40;99.90;;;;;;5115746;28;20203;-56
2023/01/31 09:46:32;;;;;;;7.53;3.17;;;9.70;99.90;;;;;;5115236;28;20223;-56
2023/01/31 09:49:04;;;;;;;6.07;3.30;;;9.90;99.90;;;;;;5115364;28;20227;-57
2023/01/31 09:51:32;;;;;;;13.57;4.03;;;10.10;99.90;;;;;;5115122;28;20238;-56
2023/01/31 09:54:00;;;;;;;9.50;3.60;;;9.90;99.90;;;;;;5114669;27;20692;-55
2023/01/31 09:56:34;;;;;;;10.10;4.17;;;9.60;99.90;;;;;;5114045;28;20485;-57
2023/01/31 09:59:11;;;;;;;13.73;4.07;;;9.30;99.90;;;;;;5114125;28;20228;-56
2023/01/31 10:01:56;;;;;;;8.90;3.30;;;9.40;99.90;;;;;;5113757;28;20263;-56
2023/01/31 10:04:42;;;;;;;7.93;3.43;;;9.60;99.90;;;;;;5113817;28;20206;-56
2023/01/31 10:07:15;;;;;;;11.30;3.60;;;9.70;99.90;;;;;;5113530;28;20215;-55
2023/01/31 10:09:46;;;;;;;6.57;2.87;;;9.90;99.90;;;;;;5113508;28;20229;-56
2023/01/31 10:12:16;;;;;;;9.63;3.00;;;9.90;99.90;;;;;;5113298;28;20211;-56
2023/01/31 10:14:49;;;;;;;8.83;3.17;;;9.80;99.90;;;;;;5113456;28;20208;-56
2023/01/31 10:17:22;;;;;;;10.27;2.90;;;9.90;99.90;;;;;;5113172;28;20219;-57
2023/01/31 10:19:53;;;;;;;8.90;3.50;;;10.00;99.90;;;;;;5113215;28;20658;-56
2023/01/31 10:22:27;;;;;;;9.93;3.80;;;10.10;99.90;;;;;;5112266;28;20203;-56
2023/01/31 10:24:58;;;;;;;10.03;3.07;;;10.20;99.90;;;;;;5112898;28;20299;-57
2023/01/31 10:27:40;;;;;;;12.73;3.40;;;10.40;99.90;;;;;;5112518;28;20227;-56
2023/01/31 10:30:16;;;;;;;10.73;3.80;;;10.40;99.90;;;;;;5112649;28;20727;-55
2023/01/31 10:32:47;;;;;;;6.87;2.70;;;10.30;99.90;;;;;;5112202;28;20203;-55
2023/01/31 10:35:17;;;;;;;12.50;3.10;;;10.30;99.90;;;;;;5112509;28;20738;-58
2023/01/31 10:37:50;;;;;;;7.90;2.80;;;10.20;99.90;;;;;;5112469;28;20230;-56
2023/01/31 10:40:20;;;;;;;12.80;3.23;;;10.10;99.90;;;;;;5111903;28;20206;-58
2023/01/31 10:42:52;;;;;;;9.37;3.33;;;9.90;99.90;;;;;;5112056;28;20211;-56
2023/01/31 10:45:20;;;;;;;10.47;2.80;;;9.80;99.90;;;;;;5111791;28;20683;-56
2023/01/31 10:47:51;;;;;;;11.43;3.20;;;9.80;99.90;;;;;;5112186;28;20224;-59
2023/01/31 10:50:21;;;;;;;8.50;3.67;;;9.90;99.90;;;;;;5112480;28;20204;-57
2023/01/31 10:53:01;;;;;;;7.03;2.90;;;10.00;99.90;;;;;;5112382;28;20207;-55
2023/01/31 10:56:03;;;;;;;11.90;3.00;;;10.00;99.90;;;;;;5112050;28;20230;-57
2023/01/31 10:58:30;;;;;;;7.50;2.70;;;10.00;99.90;;;;;;5028628;28;20233;-56
2023/01/31 11:00:58;;;;;;;7.60;3.03;;;9.90;99.90;;;;;;5095306;28;20215;-57
2023/01/31 11:03:26;;;;;;;8.97;3.10;;;9.90;99.90;;;;;;5111853;28;20208;-56
2023/01/31 11:05:55;;;;;;;8.60;3.13;;;9.80;99.90;;;;;;5111851;28;20252;-56
2023/01/31 11:08:29;;;;;;;6.13;2.50;;;9.70;99.90;;;;;;5111555;28;20239;-56
2023/01/31 11:10:58;;;;;;;10.30;2.63;;;9.60;99.90;;;;;;5111602;28;20206;-55
2023/01/31 11:13:24;;;;;;;7.07;3.00;;;9.60;99.90;;;;;;5111919;28;20207;-55
2023/01/31 11:15:54;;;;;;;8.77;2.87;;;9.60;99.90;;;;;;5112294;28;20187;-57
2023/01/31 11:18:29;;;;;;;8.23;3.00;;;9.50;99.90;;;;;;5111513;28;20249;-56
2023/01/31 11:20:58;;;;;;;10.77;3.33;;;9.60;99.90;;;;;;5112095;28;20184;-59
2023/01/31 11:23:29;;;;;;;12.83;3.10;;;9.70;99.90;;;;;;5111485;28;20590;-58
2023/01/31 11:25:57;;;;;;;6.97;2.40;;;9.80;99.90;;;;;;5111339;28;20196;-57
2023/01/31 11:28:28;;;;;;;6.73;2.73;;;9.80;99.90;;;;;;5111222;28;20231;-57
2023/01/31 11:30:56;;;;;;;8.73;2.63;;;9.80;99.90;;;;;;5111753;28;20465;-57
2023/01/31 11:33:43;;;;;;;9.17;2.80;;;9.80;99.90;;;;;;5111413;28;20260;-56
2023/01/31 11:36:11;;;;;;;73.53;52.50;;;9.80;99.90;;;;;;5111121;28;20572;-58
2023/01/31 11:38:38;;;;;;;8.57;3.30;;;9.70;99.90;;;;;;5111558;28;20223;-59
2023/01/31 11:41:30;;;;;;;8.87;2.80;;;9.60;99.90;;;;;;5111785;28;20204;-59
2023/01/31 11:44:14;;;;;;;10.33;3.13;;;9.60;99.90;;;;;;5111714;28;20211;-58
2023/01/31 11:46:51;;;;;;;9.30;2.77;;;9.70;99.90;;;;;;5111619;28;20223;-55
2023/01/31 11:49:27;;;;;;;9.33;2.80;;;9.90;99.90;;;;;;5108520;28;20223;-55
2023/01/31 11:51:54;;;;;;;8.90;3.13;;;9.90;99.90;;;;;;5114001;28;20222;-60
2023/01/31 11:54:25;;;;;;;11.43;2.87;;;10.10;99.90;;;;;;5116095;28;20203;-61
2023/01/31 11:56:52;;;;;;;8.57;3.67;;;10.30;99.90;;;;;;5116139;28;20207;-59
2023/01/31 11:59:22;;;;;;;10.25;3.10;;;10.40;99.90;;;;;;5115208;28;20517;-58
2023/01/31 12:01:52;;;;;;;7.30;3.00;;;10.60;99.90;;;;;;5115162;28;20664;-56
2023/01/31 12:04:26;;;;;;;8.97;3.30;;;10.70;99.90;;;;;;5115275;28;20203;-60
2023/01/31 12:06:59;;;;;;;10.80;2.43;;;10.80;99.90;;;;;;5113970;28;20203;-57
2023/01/31 12:09:28;;;;;;;7.33;2.67;;;10.80;99.90;;;;;;5115483;27;20207;-56
2023/01/31 12:11:56;;;;;;;9.77;3.00;;;10.70;99.90;;;;;;5115065;28;20253;-55
2023/01/31 12:14:24;;;;;;;8.13;3.03;;;10.70;99.90;;;;;;5113920;28;20242;-56
2023/01/31 12:16:55;;;;;;;11.63;3.10;;;10.60;99.90;;;;;;5114536;28;20206;-57
2023/01/31 12:19:35;;;;;;;10.13;2.80;;;10.50;99.90;;;;;;5115593;28;20196;-54
2023/01/31 12:22:10;;;;;;;8.30;3.47;;;10.40;99.90;;;;;;5114960;28;20577;-55
2023/01/31 12:24:49;;;;;;;6.00;2.43;;;10.30;99.90;;;;;;5113895;28;20214;-58
2023/01/31 12:27:28;;;;;;;8.40;2.43;;;10.30;99.90;;;;;;5114510;28;20619;-55
2023/01/31 12:30:21;;;;;;;6.27;2.40;;;10.40;99.90;;;;;;5114993;28;20199;-56
2023/01/31 12:32:59;;;;;;;6.13;2.20;;;10.40;99.90;;;;;;5115056;28;20210;-56
2023/01/31 12:35:49;;;;;;;6.30;2.63;;;10.50;99.90;;;;;;5114707;28;20234;-55
2023/01/31 12:38:34;;;;;;;5.63;2.10;;;10.60;99.90;;;;;;5114848;28;20231;-55
2023/01/31 12:41:08;;;;;;;7.97;2.60;;;10.50;99.90;;;;;;5115046;28;20208;-56
2023/01/31 12:43:56;;;;;;;7.83;2.70;;;10.40;99.90;;;;;;5114605;28;20205;-62
2023/01/31 12:46:29;;;;;;;4.13;1.83;;;10.40;99.90;;;;;;5114885;28;20208;-56
2023/01/31 12:49:28;;;;;;;7.73;2.13;;;10.50;99.90;;;;;;5114007;28;20235;-57
2023/01/31 12:52:02;;;;;;;9.63;2.13;;;10.50;99.90;;;;;;5114881;28;20406;-58
2023/01/31 12:54:46;;;;;;;6.67;2.20;;;10.60;99.90;;;;;;5114408;28;20572;-58
2023/01/31 12:57:29;;;;;;;8.47;2.70;;;10.50;99.90;;;;;;5114291;28;20188;-58
2023/01/31 13:00:03;;;;;;;9.40;2.37;;;10.60;99.90;;;;;;5114356;28;20639;-59
2023/01/31 13:02:43;;;;;;;8.13;2.10;;;10.50;99.90;;;;;;5113176;28;20207;-58
2023/01/31 13:05:24;;;;;;;8.13;2.43;;;10.30;99.90;;;;;;5114607;28;20698;-58
2023/01/31 13:07:56;;;;;;;12.13;3.07;;;10.10;99.90;;;;;;5114011;28;20238;-56
2023/01/31 13:10:37;;;;;;;5.03;2.53;;;9.90;99.90;;;;;;5113476;28;20208;-58
2023/01/31 13:13:10;;;;;;;4.80;2.53;;;9.70;99.90;;;;;;5112598;28;20211;-56
2023/01/31 13:15:44;;;;;;;9.53;3.07;;;9.60;99.90;;;;;;5114549;28;20667;-57
2023/01/31 13:18:12;;;;;;;10.27;2.20;;;9.60;99.90;;;;;;5114705;28;20230;-57
2023/01/31 13:20:44;;;;;;;6.60;2.00;;;9.40;99.90;;;;;;5114347;28;20203;-58